Time;durP1;ratioP1;P1;durP2;ratioP2;P2;SDS_P1;SDS_P2;PMS_P1;PMS_P2;Temp;Humidity;BMP_temperature;BMP_pressure;BME280_temperature;BME280_humidity;BME280_pressure;Samples;Min_cycle;Max_cycle;Signal;HPM_P1;HPM_P2
2024/03/04 00:00:46;;;;;;;55.60;43.00;;;;;;;7.58;100.00;98020.09;109367;1251;58108;-71
2024/03/04 00:03:33;;;;;;;59.20;41.80;;;;;;;7.56;100.00;98018.02;109606;1250;60575;-72
2024/03/04 00:06:00;;;;;;;56.70;43.00;;;;;;;7.53;100.00;98015.05;109546;1250;62508;-72
2024/03/04 00:08:28;;;;;;;54.50;40.80;;;;;;;7.47;100.00;98012.21;109540;1251;58318;-71
2024/03/04 00:10:54;;;;;;;58.10;43.50;;;;;;;7.44;100.00;98008.50;109574;1250;59078;-72
2024/03/04 00:13:22;;;;;;;55.90;42.40;;;;;;;7.44;100.00;98011.38;109579;1251;58795;-72
2024/03/04 00:15:49;;;;;;;57.90;43.60;;;;;;;7.42;100.00;98012.57;109622;1250;59114;-73
2024/03/04 00:18:16;;;;;;;60.80;43.50;;;;;;;7.38;100.00;98010.54;109586;1250;62822;-73
2024/03/04 00:20:42;;;;;;;59.80;44.70;;;;;;;7.34;100.00;98008.16;109563;1250;58194;-70
2024/03/04 00:23:09;;;;;;;55.60;42.70;;;;;;;7.31;100.00;98011.09;109586;1250;58563;-71
2024/03/04 00:25:35;;;;;;;56.00;42.00;;;;;;;7.26;100.00;98008.22;109592;1250;58839;-71
2024/03/04 00:28:02;;;;;;;59.20;43.00;;;;;;;7.21;100.00;98004.82;109578;1250;58243;-71
2024/03/04 00:30:28;;;;;;;60.20;44.70;;;;;;;7.17;100.00;98007.61;109365;1251;64238;-73
2024/03/04 00:32:55;;;;;;;57.40;43.90;;;;;;;7.13;100.00;98005.94;109590;1250;58270;-71
2024/03/04 00:35:21;;;;;;;60.60;45.70;;;;;;;7.10;100.00;98007.20;109611;1250;58276;-71
2024/03/04 00:37:48;;;;;;;60.60;48.30;;;;;;;7.09;100.00;98006.93;109559;1250;58106;-71
2024/03/04 00:40:14;;;;;;;67.90;47.50;;;;;;;7.08;100.00;98005.60;109646;1250;60163;-71
2024/03/04 00:42:41;;;;;;;60.90;46.30;;;;;;;7.05;100.00;98003.98;109545;1250;62923;-72
2024/03/04 00:45:08;;;;;;;63.60;47.70;;;;;;;7.01;100.00;98001.79;109351;1251;58590;-71
2024/03/04 00:47:35;;;;;;;64.60;48.40;;;;;;;6.99;100.00;98001.27;109590;1250;58255;-71
2024/03/04 00:50:02;;;;;;;63.40;46.80;;;;;;;6.97;100.00;98004.17;109588;1250;65243;-72
2024/03/04 00:52:29;;;;;;;59.80;47.50;;;;;;;6.95;100.00;98004.68;109569;1250;58866;-71
2024/03/04 00:54:56;;;;;;;67.10;48.60;;;;;;;6.91;100.00;98003.34;109538;1250;64053;-71
2024/03/04 00:57:23;;;;;;;66.70;50.40;;;;;;;6.88;100.00;98001.98;109526;1250;58201;-71
2024/03/04 00:59:49;;;;;;;65.80;49.10;;;;;;;6.87;100.00;98001.68;109380;1251;58134;-72
2024/03/04 01:02:16;;;;;;;62.20;50.30;;;;;;;6.87;100.00;98002.75;109556;1250;58502;-71
2024/03/04 01:04:43;;;;;;;66.50;51.60;;;;;;;6.85;100.00;98004.84;109559;1251;58231;-71
2024/03/04 01:07:09;;;;;;;65.80;49.00;;;;;;;6.82;100.00;98001.66;109523;1250;63854;-72
2024/03/04 01:09:36;;;;;;;68.20;51.50;;;;;;;6.79;100.00;98002.39;109529;1250;58264;-72
2024/03/04 01:12:03;;;;;;;66.70;49.50;;;;;;;6.77;100.00;98004.31;109565;1250;58148;-72
2024/03/04 01:14:29;;;;;;;72.00;51.80;;;;;;;6.74;100.00;98000.63;109594;1250;63987;-71
2024/03/04 01:16:56;;;;;;;72.70;53.40;;;;;;;6.70;100.00;97998.79;109552;1250;58249;-72
2024/03/04 01:19:23;;;;;;;73.30;54.00;;;;;;;6.67;100.00;98000.06;109554;1251;65152;-72
2024/03/04 01:21:50;;;;;;;74.70;52.40;;;;;;;6.65;100.00;97998.45;109514;1250;58263;-73
2024/03/04 01:24:17;;;;;;;69.70;50.00;;;;;;;6.64;100.00;97997.83;109558;1250;58283;-71
2024/03/04 01:26:44;;;;;;;71.90;54.10;;;;;;;6.60;100.00;97998.35;109589;1250;65195;-71
2024/03/04 01:29:10;;;;;;;76.40;53.00;;;;;;;6.58;100.00;97997.11;109546;1250;60173;-72
2024/03/04 01:31:37;;;;;;;74.90;54.00;;;;;;;6.56;100.00;98001.09;109575;1250;62821;-72
2024/03/04 01:34:04;;;;;;;70.40;52.20;;;;;;;6.54;100.00;98001.78;109534;1250;58175;-72
2024/03/04 01:36:30;;;;;;;72.10;55.10;;;;;;;6.52;100.00;98000.70;109595;1250;58146;-72
2024/03/04 01:38:57;;;;;;;79.00;58.40;;;;;;;6.50;100.00;98002.80;109572;1250;64914;-71
2024/03/04 01:41:24;;;;;;;79.70;57.20;;;;;;;6.47;100.00;98001.91;109558;1251;59842;-71
2024/03/04 01:43:50;;;;;;;75.60;57.10;;;;;;;6.45;100.00;98002.08;109539;1251;62505;-71
2024/03/04 01:46:17;;;;;;;71.10;53.10;;;;;;;6.42;100.00;98001.20;109547;1250;58365;-72
2024/03/04 01:48:45;;;;;;;75.90;56.50;;;;;;;6.39;100.00;98001.89;109530;1250;58444;-71
2024/03/04 01:51:13;;;;;;;79.80;57.80;;;;;;;6.37;100.00;98001.84;109541;1251;64905;-72
2024/03/04 01:53:41;;;;;;;76.60;54.60;;;;;;;6.36;100.00;98000.65;109549;1250;60334;-72
2024/03/04 01:56:09;;;;;;;78.40;55.90;;;;;;;6.34;100.00;97998.46;109568;1250;64094;-71
2024/03/04 01:58:41;;;;;;;77.10;56.60;;;;;;;6.33;100.00;97998.54;109528;1250;58498;-73
2024/03/04 02:01:08;;;;;;;79.80;59.20;;;;;;;6.34;100.00;97997.46;109565;1251;58305;-72
2024/03/04 02:03:36;;;;;;;80.80;57.80;;;;;;;6.34;100.00;98000.09;109553;1250;65210;-71
2024/03/04 02:06:03;;;;;;;77.10;59.20;;;;;;;6.35;100.00;98003.95;109581;1251;59991;-72
2024/03/04 02:08:30;;;;;;;86.10;59.40;;;;;;;6.34;100.00;98003.29;109361;1251;63730;-71
2024/03/04 02:10:57;;;;;;;74.20;57.40;;;;;;;6.33;100.00;98003.14;109553;1250;58490;-71
2024/03/04 02:13:25;;;;;;;74.50;56.60;;;;;;;6.33;100.00;98005.23;109591;1250;58150;-71
2024/03/04 02:15:52;;;;;;;80.30;58.50;;;;;;;6.32;100.00;98000.08;109566;1250;65255;-71
2024/03/04 02:18:20;;;;;;;77.90;57.90;;;;;;;6.28;100.00;97999.96;109366;1251;60183;-72
2024/03/04 02:20:47;;;;;;;76.90;55.80;;;;;;;6.24;100.00;98001.11;109511;1250;64057;-72
2024/03/04 02:23:14;;;;;;;76.00;56.40;;;;;;;6.21;100.00;98006.63;109521;1250;58272;-72
2024/03/04 02:25:55;;;;;;;75.30;56.90;;;;;;;6.17;100.00;98007.92;109557;1251;58674;-72
2024/03/04 02:28:22;;;;;;;71.30;55.50;;;;;;;6.14;100.00;98008.44;109599;1251;63707;-72
2024/03/04 02:30:52;;;;;;;74.90;55.20;;;;;;;6.12;100.00;98006.11;109529;1250;59481;-72
2024/03/04 02:33:20;;;;;;;;;;;;;;;6.12;100.00;98005.60;109606;1250;62519;-72
2024/03/04 02:35:49;;;;;;;79.00;55.80;;;;;;;6.11;100.00;98003.73;109561;1250;58457;-72
2024/03/04 02:38:17;;;;;;;81.10;59.10;;;;;;;6.09;100.00;98003.64;109561;1250;58413;-71
2024/03/04 02:40:45;;;;;;;84.40;59.30;;;;;;;6.07;100.00;98002.77;109560;1251;65311;-72
2024/03/04 02:43:11;;;;;;;82.60;58.90;;;;;;;6.03;100.00;98007.23;109599;1250;59006;-71
2024/03/04 02:45:38;;;;;;;79.20;60.00;;;;;;;6.01;100.00;98010.72;109566;1250;64089;-73
2024/03/04 02:48:07;;;;;;;83.70;60.40;;;;;;;5.99;100.00;98012.60;109565;1251;58190;-73
2024/03/04 02:50:34;;;;;;;79.90;58.70;;;;;;;5.98;100.00;98007.76;109549;1250;59059;-72
2024/03/04 02:53:02;;;;;;;84.20;60.20;;;;;;;5.95;100.00;98005.64;109406;1251;66419;-73
2024/03/04 02:55:28;;;;;;;81.10;59.10;;;;;;;5.93;100.00;98003.45;109084;1251;58855;-72
2024/03/04 02:57:55;;;;;;;86.50;62.00;;;;;;;5.91;100.00;98002.33;109535;1251;58363;-71
2024/03/04 03:00:30;;;;;;;83.90;61.10;;;;;;;5.89;100.00;98002.08;109586;1251;58077;-72
2024/03/04 03:03:00;;;;;;;86.30;61.40;;;;;;;5.87;100.00;98008.27;109565;1250;58152;-72
2024/03/04 03:05:27;;;;;;;86.10;65.30;;;;;;;5.84;100.00;98008.79;109545;1250;65896;-71
2024/03/04 03:07:53;;;;;;;88.10;63.90;;;;;;;5.81;100.00;98007.18;109585;1251;59882;-71
2024/03/04 03:10:21;;;;;;;91.10;65.20;;;;;;;5.78;100.00;98007.75;109563;1251;64195;-72
2024/03/04 03:12:48;;;;;;;92.40;65.50;;;;;;;5.76;100.00;98010.34;109549;1251;58385;-72
2024/03/04 03:15:14;;;;;;;85.30;63.10;;;;;;;5.75;100.00;98012.55;109231;1251;58289;-72
2024/03/04 03:17:41;;;;;;;86.30;61.80;;;;;;;5.72;100.00;98011.44;109551;1250;66355;-73
2024/03/04 03:20:16;;;;;;;88.10;62.90;;;;;;;5.69;100.00;98011.12;109596;1250;58174;-73
2024/03/04 03:22:44;;;;;;;93.50;65.80;;;;;;;5.67;100.00;98013.00;109572;1250;62823;-73
2024/03/04 03:25:12;;;;;;;92.60;65.30;;;;;;;5.66;100.00;98015.88;109563;1251;58436;-73
2024/03/04 03:27:39;;;;;;;97.80;66.80;;;;;;;5.63;100.00;98015.54;109510;1251;58246;-72
2024/03/04 03:30:07;;;;;;;92.10;65.00;;;;;;;5.62;100.00;98013.81;109320;1254;63840;-72
2024/03/04 03:32:36;;;;;;;89.00;65.90;;;;;;;5.62;100.00;98011.41;109331;1254;60054;-72
2024/03/04 03:35:04;;;;;;;96.50;70.10;;;;;;;5.60;100.00;98008.86;109329;1254;62908;-72
2024/03/04 03:37:30;;;;;;;93.50;64.90;;;;;;;5.60;100.00;98012.05;109310;1254;58263;-71
2024/03/04 03:39:57;;;;;;;88.00;65.70;;;;;;;5.59;100.00;98008.61;109371;1254;58397;-71
2024/03/04 03:42:23;;;;;;;88.10;62.40;;;;;;;5.57;100.00;98006.96;109331;1254;64038;-72
2024/03/04 03:44:50;;;;;;;97.10;68.40;;;;;;;5.55;100.00;98008.52;109323;1253;58894;-73
2024/03/04 03:47:16;;;;;;;90.40;65.40;;;;;;;5.52;100.00;98012.34;109317;1254;58625;-72
2024/03/04 03:49:43;;;;;;;86.80;65.00;;;;;;;5.51;100.00;98008.53;109218;1254;58253;-72
2024/03/04 03:52:09;;;;;;;96.40;68.50;;;;;;;5.51;100.00;98010.67;109336;1254;58277;-73
2024/03/04 03:54:36;;;;;;;87.20;64.90;;;;;;;5.50;100.00;98009.48;109094;1254;65807;-71
2024/03/04 03:57:02;;;;;;;87.70;64.80;;;;;;;5.50;100.00;98011.08;109342;1254;59017;-72
2024/03/04 03:59:29;;;;;;;95.40;68.10;;;;;;;5.49;100.00;98012.89;109309;1253;63945;-72
2024/03/04 04:01:56;;;;;;;89.30;66.70;;;;;;;5.48;100.00;98012.41;109479;1250;58248;-72
2024/03/04 04:04:25;;;;;;;91.90;68.90;;;;;;;5.49;100.00;98010.77;109571;1251;58167;-73
2024/03/04 04:06:52;;;;;;;88.50;66.30;;;;;;;5.49;100.00;98016.61;109560;1251;63707;-71
2024/03/04 04:09:18;;;;;;;95.50;70.00;;;;;;;5.48;100.00;98017.52;109589;1251;59449;-72
2024/03/04 04:11:45;;;;;;;91.00;67.20;;;;;;;5.47;100.00;98015.11;109522;1251;71783;-71
2024/03/04 04:14:12;;;;;;;91.40;69.60;;;;;;;5.46;100.00;98016.78;109534;1254;58163;-71
2024/03/04 04:16:38;;;;;;;88.60;67.60;;;;;;;5.45;100.00;98016.32;109542;1250;58224;-71
2024/03/04 04:19:05;;;;;;;94.40;67.60;;;;;;;5.45;100.00;98013.67;109561;1251;64106;-71
2024/03/04 04:21:32;;;;;;;89.00;64.50;;;;;;;5.44;100.00;98015.52;109547;1251;58193;-72
2024/03/04 04:23:59;;;;;;;92.90;68.80;;;;;;;5.42;100.00;98016.84;109556;1251;62838;-74
2024/03/04 04:26:26;;;;;;;90.70;66.90;;;;;;;5.41;100.00;98015.32;109378;1250;58235;-72
2024/03/04 04:28:53;;;;;;;88.60;65.90;;;;;;;5.40;100.00;98015.75;109582;1251;58454;-72
2024/03/04 04:31:21;;;;;;;90.40;67.00;;;;;;;5.40;100.00;98018.04;109526;1250;65207;-72
2024/03/04 04:33:48;;;;;;;89.90;64.90;;;;;;;5.41;100.00;98017.45;109523;1251;58905;-71
2024/03/04 04:36:18;;;;;;;86.00;65.40;;;;;;;5.40;100.00;98016.61;109569;1251;62866;-72
2024/03/04 04:38:45;;;;;;;86.10;63.80;;;;;;;5.40;100.00;98018.07;109537;1250;58276;-71
2024/03/04 04:41:12;;;;;;;83.80;65.50;;;;;;;5.38;100.00;98017.44;109540;1251;58163;-73
2024/03/04 04:43:39;;;;;;;90.10;64.40;;;;;;;5.37;100.00;98019.28;109570;1251;64893;-71
2024/03/04 04:46:05;;;;;;;83.00;62.70;;;;;;;5.35;100.00;98018.66;109583;1251;60063;-72
2024/03/04 04:48:32;;;;;;;81.10;62.50;;;;;;;5.33;100.00;98021.84;109527;1251;59234;-71
2024/03/04 04:50:58;;;;;;;82.90;63.70;;;;;;;5.30;100.00;98021.14;109563;1251;58198;-72
2024/03/04 04:53:25;;;;;;;85.40;64.70;;;;;;;5.29;100.00;98016.42;109567;1250;58181;-72
2024/03/04 04:55:51;;;;;;;81.20;61.10;;;;;;;5.27;100.00;98019.17;109381;1251;63685;-72
2024/03/04 04:58:18;;;;;;;88.90;63.60;;;;;;;5.25;100.00;98019.50;109552;1250;60068;-73
2024/03/04 05:00:45;;;;;;;83.10;62.90;;;;;;;5.23;100.00;98016.61;109528;1251;64130;-72
2024/03/04 05:03:11;;;;;;;84.80;63.30;;;;;;;5.22;100.00;98015.64;109571;1251;58251;-72
2024/03/04 05:05:38;;;;;;;88.80;64.30;;;;;;;5.20;100.00;98014.66;109533;1251;58654;-72
2024/03/04 05:08:05;;;;;;;88.70;63.90;;;;;;;5.19;100.00;98017.02;109524;1255;63809;-72
2024/03/04 05:10:31;;;;;;;78.70;57.90;;;;;;;5.18;100.00;98015.49;109555;1251;58601;-73
2024/03/04 05:12:59;;;;;;;85.70;63.40;;;;;;;5.16;100.00;98014.56;109523;1251;62532;-72
2024/03/04 05:15:25;;;;;;;83.80;63.30;;;;;;;5.14;100.00;98015.56;109519;1251;58170;-72
2024/03/04 05:17:51;;;;;;;90.80;66.50;;;;;;;5.13;100.00;98019.51;109608;1251;58432;-71
2024/03/04 05:20:18;;;;;;;90.30;67.10;;;;;;;5.11;100.00;98020.16;109567;1251;58150;-72
2024/03/04 05:22:44;;;;;;;85.50;65.20;;;;;;;5.10;100.00;98020.42;109522;1250;58205;-72
2024/03/04 05:25:11;;;;;;;84.60;64.90;;;;;;;5.09;100.00;98021.50;109599;1251;62811;-72
2024/03/04 05:27:38;;;;;;;86.10;64.00;;;;;;;5.09;100.00;98026.83;109564;1250;58183;-71
2024/03/04 05:30:05;;;;;;;82.30;63.90;;;;;;;5.08;100.00;98027.00;109532;1250;58474;-72
2024/03/04 05:32:32;;;;;;;80.60;62.20;;;;;;;5.07;100.00;98027.95;109559;1251;65247;-73
2024/03/04 05:34:58;;;;;;;89.20;69.30;;;;;;;5.08;100.00;98028.81;109563;1251;58936;-71
2024/03/04 05:37:25;;;;;;;81.90;62.70;;;;;;;5.09;100.00;98032.29;109520;1251;58157;-72
2024/03/04 05:39:51;;;;;;;90.00;69.10;;;;;;;5.10;100.00;98031.66;109546;1250;58339;-72
2024/03/04 05:42:17;;;;;;;91.00;68.10;;;;;;;5.15;100.00;98033.66;109602;1251;58109;-72
2024/03/04 05:44:45;;;;;;;89.70;67.50;;;;;;;5.20;100.00;98036.35;109551;1250;59000;-71
2024/03/04 05:47:11;;;;;;;78.00;61.80;;;;;;;5.25;100.00;98033.20;109530;1250;58936;-71
2024/03/04 05:49:38;;;;;;;84.00;63.10;;;;;;;5.31;100.00;98033.39;109569;1251;64152;-70
2024/03/04 05:52:05;;;;;;;79.80;64.60;;;;;;;5.34;100.00;98030.05;109569;1251;58182;-71
2024/03/04 05:54:32;;;;;;;80.00;59.30;;;;;;;5.36;100.00;98031.12;109560;1251;58354;-70
2024/03/04 05:56:59;;;;;;;79.40;62.30;;;;;;;5.39;100.00;98034.45;109540;1250;66541;-70
2024/03/04 05:59:26;;;;;;;82.00;61.60;;;;;;;5.45;100.00;98034.97;109603;1251;60378;-71
2024/03/04 06:01:53;;;;;;;79.70;58.80;;;;;;;5.50;100.00;98037.31;109514;1251;64115;-70
2024/03/04 06:04:19;;;;;;;81.70;61.60;;;;;;;5.54;100.00;98040.62;109675;1251;58165;-71
2024/03/04 06:06:47;;;;;;;75.40;61.00;;;;;;;5.57;100.00;98043.58;109684;1251;58324;-71
2024/03/04 06:09:15;;;;;;;74.20;60.40;;;;;;;5.61;100.00;98042.48;109667;1250;66175;-71
2024/03/04 06:11:42;;;;;;;71.70;56.70;;;;;;;5.64;100.00;98046.13;109709;1250;60213;-72
2024/03/04 06:14:09;;;;;;;72.30;56.40;;;;;;;5.67;100.00;98047.01;109719;1250;62574;-71
2024/03/04 06:16:35;;;;;;;77.10;60.10;;;;;;;5.71;100.00;98047.48;109719;1251;58247;-72
2024/03/04 06:19:03;;;;;;;75.50;57.80;;;;;;;5.75;100.00;98044.23;109691;1250;58135;-71
2024/03/04 06:21:29;;;;;;;73.90;58.20;;;;;;;5.79;100.00;98044.14;109522;1251;63828;-71
2024/03/04 06:23:56;;;;;;;72.90;57.00;;;;;;;5.82;100.00;98047.70;109719;1250;58378;-71
2024/03/04 06:26:22;;;;;;;74.70;59.00;;;;;;;5.82;100.00;98047.47;109657;1250;58503;-71
2024/03/04 06:28:49;;;;;;;73.60;58.10;;;;;;;5.84;100.00;98049.30;109656;1253;58213;-70
2024/03/04 06:31:16;;;;;;;69.10;54.80;;;;;;;5.85;100.00;98047.63;109702;1251;58201;-70
2024/03/04 06:33:42;;;;;;;65.70;52.40;;;;;;;5.88;100.00;98049.88;109680;1250;65293;-71
2024/03/04 06:36:09;;;;;;;61.50;48.80;;;;;;;5.93;100.00;98047.35;109756;1250;59002;-71
2024/03/04 06:38:35;;;;;;;63.90;51.20;;;;;;;5.97;100.00;98058.05;109658;1251;58861;-71
2024/03/04 06:41:03;;;;;;;66.00;52.80;;;;;;;5.99;100.00;98058.63;109701;1250;58700;-71
2024/03/04 06:43:30;;;;;;;63.40;51.10;;;;;;;6.03;100.00;98059.92;109747;1251;58104;-70
2024/03/04 06:45:57;;;;;;;69.20;55.50;;;;;;;6.09;100.00;98059.92;109644;1250;58503;-71
2024/03/04 06:48:24;;;;;;;70.60;55.00;;;;;;;6.15;100.00;98062.34;109696;1250;58668;-71
2024/03/04 06:50:50;;;;;;;72.60;54.20;;;;;;;6.19;100.00;98067.44;109696;1250;63690;-71
2024/03/04 06:53:17;;;;;;;65.50;51.30;;;;;;;6.15;100.00;98068.71;109691;1250;58303;-71
2024/03/04 06:55:43;;;;;;;65.30;52.40;;;;;;;6.11;100.00;98069.30;109655;1250;58502;-71
2024/03/04 06:58:10;;;;;;;64.50;51.40;;;;;;;6.14;100.00;98071.06;109707;1251;65072;-70
2024/03/04 07:00:36;;;;;;;63.10;52.70;;;;;;;6.18;100.00;98065.54;109704;1251;60149;-70
2024/03/04 07:03:04;;;;;;;63.40;49.40;;;;;;;6.25;100.00;98066.48;109690;1250;64386;-70
2024/03/04 07:05:32;;;;;;;68.90;53.20;;;;;;;6.34;100.00;98068.39;109656;1250;58172;-70
2024/03/04 07:07:59;;;;;;;63.20;51.40;;;;;;;6.43;100.00;98071.84;109719;1250;58232;-71
2024/03/04 07:10:25;;;;;;;58.60;45.80;;;;;;;6.50;100.00;98070.88;109714;1250;64100;-71
2024/03/04 07:12:51;;;;;;;61.60;50.70;;;;;;;6.55;100.00;98075.13;109675;1250;58118;-71
2024/03/04 07:15:18;;;;;;;63.80;49.60;;;;;;;6.61;100.00;98076.35;109713;1249;58256;-72
2024/03/04 07:17:44;;;;;;;64.50;50.50;;;;;;;6.68;100.00;98072.31;109717;1250;58594;-71
2024/03/04 07:20:11;;;;;;;59.60;50.50;;;;;;;6.72;100.00;98071.70;109686;1251;58303;-70
2024/03/04 07:22:38;;;;;;;57.20;47.70;;;;;;;6.78;100.00;98073.48;109709;1250;65198;-71
2024/03/04 07:25:05;;;;;;;58.40;47.50;;;;;;;6.81;100.00;98074.30;109660;1251;61411;-70
2024/03/04 07:27:32;;;;;;;61.80;51.80;;;;;;;6.81;100.00;98076.96;109695;1250;65156;-70
2024/03/04 07:29:58;;;;;;;54.60;45.60;;;;;;;6.84;100.00;98080.52;109411;1250;58167;-71
2024/03/04 07:32:25;;;;;;;56.00;46.30;;;;;;;6.88;100.00;98082.70;109703;1250;58166;-70
2024/03/04 07:34:52;;;;;;;57.20;48.30;;;;;;;6.94;100.00;98078.38;109493;1250;63690;-70
2024/03/04 07:37:18;;;;;;;62.80;49.00;;;;;;;7.04;100.00;98078.27;109458;1249;58955;-70
2024/03/04 07:39:45;;;;;;;60.20;48.50;;;;;;;7.19;100.00;98080.92;109661;1251;64040;-70
2024/03/04 07:42:11;;;;;;;59.70;46.60;;;;;;;7.33;100.00;98084.06;109543;1250;58208;-70
2024/03/04 07:44:39;;;;;;;62.10;49.30;;;;;;;7.43;100.00;98083.02;109704;1253;58178;-70
2024/03/04 07:47:06;;;;;;;59.40;46.90;;;;;;;7.48;100.00;98087.23;109700;1251;65256;-70
2024/03/04 07:49:32;;;;;;;59.20;47.40;;;;;;;7.52;100.00;98087.34;109413;1251;69193;-71
2024/03/04 07:51:59;;;;;;;56.20;45.10;;;;;;;7.55;100.00;98089.25;109712;1250;64856;-70
2024/03/04 07:54:25;;;;;;;59.50;47.40;;;;;;;7.57;100.00;98087.20;109652;1251;58190;-71
2024/03/04 07:56:52;;;;;;;59.20;48.80;;;;;;;7.59;100.00;98088.79;109671;1250;58255;-71
2024/03/04 07:59:19;;;;;;;57.00;46.10;;;;;;;7.62;100.00;98086.10;109544;1250;63687;-71
2024/03/04 08:01:46;;;;;;;57.70;45.90;;;;;;;7.65;100.00;98086.77;109547;1251;61406;-71
2024/03/04 08:04:12;;;;;;;57.40;45.70;;;;;;;7.70;100.00;98086.59;109695;1251;62505;-71
2024/03/04 08:06:39;;;;;;;56.90;46.30;;;;;;;7.76;100.00;98085.48;109652;1253;58481;-71
2024/03/04 08:09:05;;;;;;;60.30;48.80;;;;;;;7.79;100.00;98085.31;109555;1251;58177;-72
2024/03/04 08:11:32;;;;;;;60.10;48.60;;;;;;;7.81;100.00;98082.70;109723;1250;65312;-71
2024/03/04 08:13:58;;;;;;;58.10;46.80;;;;;;;7.87;100.00;98083.13;109720;1250;58237;-71
2024/03/04 08:16:25;;;;;;;59.80;48.40;;;;;;;7.95;100.00;98081.66;109662;1251;58314;-70
2024/03/04 08:18:51;;;;;;;64.90;50.40;;;;;;;8.07;100.00;98073.59;109682;1250;58254;-71
2024/03/04 08:21:18;;;;;;;62.00;48.90;;;;;;;8.21;100.00;98076.83;109689;1251;58053;-71
2024/03/04 08:23:44;;;;;;;65.50;50.80;;;;;;;8.28;100.00;98078.25;109746;1250;59081;-71
2024/03/04 08:26:11;;;;;;;61.00;46.80;;;;;;;8.33;100.00;98076.81;109726;1253;58589;-70
2024/03/04 08:28:37;;;;;;;62.90;49.70;;;;;;;8.35;100.00;98073.34;109511;1250;62584;-70
2024/03/04 08:31:04;;;;;;;67.40;51.70;;;;;;;8.37;100.00;98070.68;109652;1252;58623;-71
2024/03/04 08:33:30;;;;;;;68.00;53.30;;;;;;;8.45;100.00;98077.27;109700;1250;58214;-71
2024/03/04 08:35:57;;;;;;;67.10;52.80;;;;;;;8.52;100.00;98075.64;109688;1251;58154;-70
2024/03/04 08:38:24;;;;;;;65.80;51.70;;;;;;;8.60;100.00;98075.60;109503;1250;58373;-70
2024/03/04 08:40:50;;;;;;;62.80;48.20;;;;;;;8.66;100.00;98076.08;109685;1251;64130;-71
2024/03/04 08:43:17;;;;;;;55.20;44.40;;;;;;;8.74;100.00;98072.08;109665;1251;58279;-72
2024/03/04 08:45:43;;;;;;;57.50;45.10;;;;;;;8.85;100.00;98068.11;109545;1251;58118;-72
2024/03/04 08:48:10;;;;;;;60.00;48.60;;;;;;;8.97;100.00;98071.09;109693;1250;58197;-71
2024/03/04 08:50:36;;;;;;;66.90;50.90;;;;;;;9.12;100.00;98068.92;109697;1251;60136;-71
2024/03/04 08:53:03;;;;;;;64.00;49.30;;;;;;;9.23;100.00;98066.65;109685;1250;58170;-71
2024/03/04 08:55:29;;;;;;;66.90;49.70;;;;;;;9.29;100.00;98064.74;109670;1250;58162;-70
2024/03/04 08:57:56;;;;;;;66.90;50.50;;;;;;;9.36;100.00;98062.98;109658;1250;58569;-71
2024/03/04 09:00:23;;;;;;;56.00;45.00;;;;;;;9.43;100.00;98061.92;109710;1251;65242;-70
2024/03/04 09:02:49;;;;;;;51.90;41.40;;;;;;;9.45;100.00;98062.09;109718;1250;58878;-70
2024/03/04 09:05:16;;;;;;;54.90;41.60;;;;;;;9.53;100.00;98059.20;109668;1251;65160;-70
2024/03/04 09:07:42;;;;;;;56.40;44.60;;;;;;;9.66;100.00;98057.42;109652;1250;58322;-70
2024/03/04 09:10:09;;;;;;;61.70;47.70;;;;;;;9.81;100.00;98058.57;109675;1251;58050;-70
2024/03/04 09:12:35;;;;;;;59.40;46.10;;;;;;;9.94;100.00;98058.84;109699;1250;65334;-70
2024/03/04 09:15:02;;;;;;;61.90;49.00;;;;;;;10.03;100.00;98056.30;109674;1253;59796;-70
2024/03/04 09:17:30;;;;;;;64.40;49.90;;;;;;;10.12;100.00;98058.83;109528;1251;63370;-70
2024/03/04 09:19:56;;;;;;;64.80;50.10;;;;;;;10.17;100.00;98053.98;109667;1250;58249;-71
2024/03/04 09:22:23;;;;;;;63.80;49.10;;;;;;;10.23;100.00;98050.67;109649;1250;58143;-71
2024/03/04 09:24:49;;;;;;;61.50;47.90;;;;;;;10.29;100.00;98050.14;109699;1250;58537;-71
2024/03/04 09:27:16;;;;;;;66.60;49.80;;;;;;;10.38;100.00;98051.28;109704;1251;58169;-71
2024/03/04 09:29:43;;;;;;;61.10;47.50;;;;;;;10.45;100.00;98052.83;109627;1253;64077;-72
2024/03/04 09:32:09;;;;;;;60.00;45.90;;;;;;;10.56;100.00;98055.85;109374;1250;58286;-70
2024/03/04 09:34:36;;;;;;;54.60;43.10;;;;;;;10.65;100.00;98054.55;109666;1252;58575;-70
2024/03/04 09:37:03;;;;;;;56.00;44.80;;;;;;;10.73;100.00;98052.98;109720;1251;64913;-71
2024/03/04 09:39:30;;;;;;;55.60;44.80;;;;;;;10.80;100.00;98056.70;109679;1251;60112;-71
2024/03/04 09:41:57;;;;;;;51.80;42.30;;;;;;;10.89;100.00;98055.63;109484;1251;62749;-71
2024/03/04 09:44:27;;;;;;;54.10;39.80;;;;;;;10.98;100.00;98052.55;109558;1250;143542;-71
2024/03/04 09:46:55;;;;;;;;;;;;;;;11.11;100.00;98054.10;109658;1250;58165;-72
2024/03/04 09:49:24;;;;;;;48.80;38.10;;;;;;;11.26;100.00;98053.40;109392;1250;65131;-72
2024/03/04 09:51:51;;;;;;;46.80;38.10;;;;;;;11.40;100.00;98055.38;109679;1251;60209;-71
2024/03/04 09:54:19;;;;;;;45.30;36.30;;;;;;;11.48;100.00;98052.69;109659;1251;65239;-70
2024/03/04 09:56:46;;;;;;;46.60;37.10;;;;;;;11.55;100.00;98051.74;109657;1251;58348;-71
2024/03/04 09:59:13;;;;;;;45.90;36.40;;;;;;;11.65;100.00;98052.20;109684;1250;58448;-71
2024/03/04 10:01:40;;;;;;;42.20;34.70;;;;;;;11.75;100.00;98052.73;109668;1251;65406;-72
2024/03/04 10:04:07;;;;;;;43.30;35.10;;;;;;;11.82;100.00;98049.41;109690;1250;59836;-71
2024/03/04 10:06:34;;;;;;;42.50;31.80;;;;;;;11.93;100.00;98046.54;109678;1251;64715;-71
2024/03/04 10:09:00;;;;;;;37.90;31.10;;;;;;;12.12;100.00;98041.52;109486;1251;58268;-70
2024/03/04 10:11:27;;;;;;;39.90;32.10;;;;;;;12.32;100.00;98041.52;109667;1249;58373;-71
2024/03/04 10:13:55;;;;;;;36.50;30.00;;;;;;;12.48;100.00;98038.32;109630;1251;66364;-71
2024/03/04 10:16:22;;;;;;;37.50;30.60;;;;;;;12.65;100.00;98037.63;109672;1251;60085;-71
2024/03/04 10:18:59;;;;;;;38.50;31.10;;;;;;;12.80;100.00;98036.66;109513;1251;63746;-71
2024/03/04 10:21:30;;;;;;;40.50;32.10;;;;;;;13.01;100.00;98034.73;109614;1250;58047;-71
2024/03/04 10:23:59;;;;;;;40.90;31.10;;;;;;;13.05;100.00;98031.27;109675;1250;58179;-71
2024/03/04 10:26:27;;;;;;;39.10;32.50;;;;;;;13.08;100.00;98031.55;109691;1250;65180;-71
2024/03/04 10:28:53;;;;;;;39.80;31.20;;;;;;;13.24;100.00;98027.78;109669;1251;60477;-71
2024/03/04 10:31:20;;;;;;;37.20;28.90;;;;;;;13.34;100.00;98030.61;109629;1250;64058;-71
2024/03/04 10:33:46;;;;;;;36.20;29.90;;;;;;;13.48;100.00;98030.17;109670;1250;58165;-71
2024/03/04 10:36:14;;;;;;;36.00;29.40;;;;;;;13.67;100.00;98025.30;109681;1251;58472;-71
2024/03/04 10:38:43;;;;;;;40.70;32.40;;;;;;;13.89;100.00;98020.42;109409;1250;63953;-71
2024/03/04 10:41:20;;;;;;;39.50;29.40;;;;;;;13.95;100.00;98018.92;109682;1251;59171;-71
2024/03/04 10:43:48;;;;;;;36.60;29.10;;;;;;;13.87;100.00;98016.65;109647;1251;62674;-71
2024/03/04 10:46:16;;;;;;;41.10;30.00;;;;;;;13.84;100.00;98016.24;109670;1251;58255;-71
2024/03/04 10:48:45;;;;;;;34.70;30.00;;;;;;;13.90;100.00;98017.23;109674;1251;58232;-70
2024/03/04 10:51:15;;;;;;;34.30;28.00;;;;;;;14.09;100.00;98020.07;109731;1250;65185;-70
2024/03/04 10:53:43;;;;;;;35.30;26.20;;;;;;;14.33;100.00;98017.14;109737;1251;61230;-71
2024/03/04 10:56:13;;;;;;;32.20;26.20;;;;;;;14.46;100.00;98016.08;109532;1251;70788;-70
2024/03/04 10:58:42;;;;;;;;;;;;;;;14.59;100.00;98014.64;109388;1250;58188;-71
2024/03/04 11:01:13;;;;;;;27.30;23.50;;;;;;;14.74;100.00;98011.94;109658;1250;58149;-70
2024/03/04 11:04:00;;;;;;;29.90;23.10;;;;;;;14.77;100.00;98005.93;109671;1251;65250;-71
2024/03/04 11:06:29;;;;;;;27.60;24.20;;;;;;;14.80;100.00;98004.11;109688;1249;58849;-71
2024/03/04 11:08:57;;;;;;;25.30;22.70;;;;;;;14.83;100.00;98002.09;109679;1251;64061;-71